X  Sluiten METAR luchtvaart weer gegevens      EHAM Amsterdam Airport Schiphol
Temperatuur
14°C Temperatuur
14°C Dauwpunt
100% Vochtigheid



Wind
11 KM/U
7 MPH
3 M/S
6 KTS



350°
N
Huidig weer

Lichte Regen, Lichte Motregen Lichte Regen, Lichte Motregen
Luchtdruk 1016.93 (hPa) - 30.03 (inHg)
Zicht 2.8 (mijl) - 4.5 (km)
Vliegveld
Vliegveld code EHAM

Locatie : Amsterdam Airport Schiphol
Afstand: 115 (km)

Metar:
EHAM 250125Z 35006KT 4500 -RADZ FEW003 SCT014 14/14 Q1017 TEMPO 6000

Tijd: 25-05-2024 03:25 CEST